<?xml version='1.0' encoding='UTF-8'?><gpx version="1.1" creator="JPX - https://github.com/jenetics/jpx" xmlns="http://www.topografix.com/GPX/1/1"><trk><trkseg><trkpt lat="45.7631743" lon="11.520332"><ele>319.0</ele><time>2026-04-02T13:47:39.506Z</time></trkpt><trkpt lat="45.763168" lon="11.519629"><ele>319.0</ele><time>2026-04-02T13:47:46.795Z</time></trkpt><trkpt lat="45.7632394" lon="11.5196084"><ele>319.0</ele><time>2026-04-02T13:47:59.714Z</time></trkpt><trkpt lat="45.7632144" lon="11.52034"><ele>319.0</ele><time>2026-04-02T13:48:18.307Z</time></trkpt><trkpt lat="45.7631672" lon="11.519617"><ele>316.0</ele><time>2026-04-02T13:48:38.511Z</time></trkpt><trkpt lat="45.763201" lon="11.5204234"><ele>309.0</ele><time>2026-04-02T13:49:10.048Z</time></trkpt><trkpt lat="45.7631763" lon="11.5215213"><ele>395.0</ele><time>2026-04-02T13:49:15.159Z</time></trkpt><trkpt lat="45.7668014" lon="11.5351818"><ele>395.0</ele><time>2026-04-02T13:52:13.926Z</time></trkpt></trkseg><trkseg><trkpt lat="45.7632059" lon="11.5204325"><ele>261.0</ele><time>2026-04-02T14:09:15.484Z</time></trkpt><trkpt lat="45.7688676" lon="11.5268595"><ele>271.0</ele><time>2026-04-02T14:21:04.624Z</time></trkpt><trkpt lat="45.7705212" lon="11.5186848"><ele>271.0</ele><time>2026-04-02T14:23:50.537Z</time></trkpt><trkpt lat="45.7706051" lon="11.5181256"><ele>271.0</ele><time>2026-04-02T14:23:55.963Z</time></trkpt><trkpt lat="45.770651" lon="11.5174769"><ele>248.0</ele><time>2026-04-02T14:24:01.526Z</time></trkpt><trkpt lat="45.7708073" lon="11.5165732"><ele>252.0</ele><time>2026-04-02T14:24:13.043Z</time></trkpt><trkpt lat="45.7702334" lon="11.5160328"><ele>245.0</ele><time>2026-04-02T14:24:18.731Z</time></trkpt><trkpt lat="45.7693999" lon="11.5151339"><ele>228.0</ele><time>2026-04-02T14:24:24.233Z</time></trkpt><trkpt lat="45.7689233" lon="11.5149897"><ele>237.0</ele><time>2026-04-02T14:24:29.837Z</time></trkpt><trkpt lat="45.768569" lon="11.5144211"><ele>217.0</ele><time>2026-04-02T14:24:35.87Z</time></trkpt><trkpt lat="45.7679888" lon="11.514044"><ele>209.0</ele><time>2026-04-02T14:24:41.919Z</time></trkpt><trkpt lat="45.7672124" lon="11.5135055"><ele>202.0</ele><time>2026-04-02T14:24:47.956Z</time></trkpt><trkpt lat="45.7664053" lon="11.5128372"><ele>198.0</ele><time>2026-04-02T14:24:54.339Z</time></trkpt><trkpt lat="45.7660102" lon="11.5124708"><ele>182.0</ele><time>2026-04-02T14:25:00.717Z</time></trkpt><trkpt lat="45.7636882" lon="11.5125014"><ele>245.0</ele><time>2026-04-02T14:26:20.38Z</time></trkpt><trkpt lat="45.7698094" lon="11.5153109"><ele>248.0</ele><time>2026-04-02T14:34:55.485Z</time></trkpt><trkpt lat="45.770828" lon="11.5165668"><ele>259.0</ele><time>2026-04-02T14:35:01.098Z</time></trkpt><trkpt lat="45.7706581" lon="11.5174224"><ele>265.0</ele><time>2026-04-02T14:35:12.062Z</time></trkpt><trkpt lat="45.7706298" lon="11.5180023"><ele>271.0</ele><time>2026-04-02T14:35:17.636Z</time></trkpt><trkpt lat="45.7701015" lon="11.5179266"><ele>349.0</ele><time>2026-04-02T14:35:23.221Z</time></trkpt><trkpt lat="45.7730728" lon="11.5255862"><ele>319.0</ele><time>2026-04-02T14:41:05.411Z</time></trkpt><trkpt lat="45.7631588" lon="11.5196117"><ele>301.0</ele><time>2026-04-02T14:43:12.072Z</time></trkpt><trkpt lat="45.7620192" lon="11.5191667"><ele>319.0</ele><time>2026-04-02T14:43:23.28Z</time></trkpt><trkpt lat="45.7632273" lon="11.519646"><ele>319.0</ele><time>2026-04-02T14:43:40.08Z</time></trkpt><trkpt lat="45.7633245" lon="11.5196555"><ele>319.0</ele><time>2026-04-02T14:43:48.277Z</time></trkpt><trkpt lat="45.7632658" lon="11.5197324"><ele>319.0</ele><time>2026-04-02T14:43:49.862Z</time></trkpt></trkseg><trkseg><trkpt lat="45.7617678" lon="11.5185304"><ele>297.0</ele><time>2026-04-02T15:02:23.144Z</time></trkpt><trkpt lat="45.7616574" lon="11.518274"><ele>297.0</ele><time>2026-04-02T15:02:28.847Z</time></trkpt><trkpt lat="45.7599497" lon="11.5230942"><ele>221.0</ele><time>2026-04-02T15:02:55.799Z</time></trkpt><trkpt lat="45.75784" lon="11.5191305"><ele>205.0</ele><time>2026-04-02T15:03:21.769Z</time></trkpt><trkpt lat="45.758985" lon="11.5222575"><ele>220.0</ele><time>2026-04-02T15:03:40.389Z</time></trkpt><trkpt lat="45.7601179" lon="11.5223087"><ele>205.0</ele><time>2026-04-02T15:03:59.544Z</time></trkpt><trkpt lat="45.7589675" lon="11.5228727"><ele>197.0</ele><time>2026-04-02T15:04:11.683Z</time></trkpt><trkpt lat="45.7581168" lon="11.5226718"><ele>189.0</ele><time>2026-04-02T15:04:18.047Z</time></trkpt><trkpt lat="45.7576143" lon="11.5225442"><ele>189.0</ele><time>2026-04-02T15:04:23.728Z</time></trkpt><trkpt lat="45.756976" lon="11.5217128"><ele>177.0</ele><time>2026-04-02T15:04:29.161Z</time></trkpt><trkpt lat="45.7557652" lon="11.522515"><ele>201.0</ele><time>2026-04-02T15:04:34.837Z</time></trkpt><trkpt lat="45.7541647" lon="11.5221714"><ele>169.0</ele><time>2026-04-02T15:04:40.516Z</time></trkpt><trkpt lat="45.7548913" lon="11.5195203"><ele>158.0</ele><time>2026-04-02T15:04:47.264Z</time></trkpt><trkpt lat="45.7539219" lon="11.5159772"><ele>153.0</ele><time>2026-04-02T15:04:52.831Z</time></trkpt><trkpt lat="45.7526338" lon="11.5173457"><ele>161.0</ele><time>2026-04-02T15:05:10.45Z</time></trkpt><trkpt lat="45.7514815" lon="11.5182052"><ele>145.0</ele><time>2026-04-02T15:05:16.027Z</time></trkpt><trkpt lat="45.7421741" lon="11.5232753"><ele>126.0</ele><time>2026-04-02T15:06:54.214Z</time></trkpt><trkpt lat="45.7321584" lon="11.5372224"><ele>121.0</ele><time>2026-04-02T15:10:44.433Z</time></trkpt><trkpt lat="45.7310172" lon="11.5376433"><ele>121.5</ele><time>2026-04-02T15:11:13.935Z</time></trkpt><trkpt lat="45.7312359" lon="11.5375239"><ele>122.0</ele><time>2026-04-02T15:11:19.303Z</time></trkpt><trkpt lat="45.7321435" lon="11.5372416"><ele>126.0</ele><time>2026-04-02T15:11:24.786Z</time></trkpt><trkpt lat="45.7264878" lon="11.5410532"><ele>127.0</ele><time>2026-04-02T15:11:40.725Z</time></trkpt><trkpt lat="45.7269919" lon="11.5400775"><ele>125.0</ele><time>2026-04-02T15:12:28.218Z</time></trkpt><trkpt lat="45.725928" lon="11.5397404"><ele>127.0</ele><time>2026-04-02T15:12:36.387Z</time></trkpt><trkpt lat="45.724825" lon="11.5404152"><ele>126.0</ele><time>2026-04-02T15:12:45.624Z</time></trkpt><trkpt lat="45.7264217" lon="11.5402635"><ele>116.0</ele><time>2026-04-02T15:14:27.708Z</time></trkpt><trkpt lat="45.7125192" lon="11.5422123"><ele>116.0</ele><time>2026-04-02T15:17:22.59Z</time></trkpt><trkpt lat="45.7095128" lon="11.543147"><ele>114.0</ele><time>2026-04-02T15:17:56.163Z</time></trkpt><trkpt lat="45.706813" lon="11.5454206"><ele>110.0</ele><time>2026-04-02T15:18:45.233Z</time></trkpt><trkpt lat="45.7042981" lon="11.5439889"><ele>107.0</ele><time>2026-04-02T15:19:22.481Z</time></trkpt><trkpt lat="45.6994912" lon="11.5460652"><ele>101.0</ele><time>2026-04-02T15:20:12.73Z</time></trkpt><trkpt lat="45.6951755" lon="11.5479575"><ele>101.0</ele><time>2026-04-02T15:20:53.263Z</time></trkpt><trkpt lat="45.6952385" lon="11.5480809"><ele>101.0</ele><time>2026-04-02T15:21:41.735Z</time></trkpt><trkpt lat="45.6926165" lon="11.5523525"><ele>101.0</ele><time>2026-04-02T15:22:16.481Z</time></trkpt><trkpt lat="45.6916163" lon="11.552083"><ele>102.0</ele><time>2026-04-02T15:22:48.186Z</time></trkpt><trkpt lat="45.6914098" lon="11.5545631"><ele>96.0</ele><time>2026-04-02T15:23:05.653Z</time></trkpt><trkpt lat="45.6863083" lon="11.5507097"><ele>96.0</ele><time>2026-04-02T15:23:30.455Z</time></trkpt><trkpt lat="45.6864341" lon="11.5510172"><ele>96.0</ele><time>2026-04-02T15:23:36.499Z</time></trkpt><trkpt lat="45.6914199" lon="11.5545587"><ele>91.0</ele><time>2026-04-02T15:23:42.193Z</time></trkpt><trkpt lat="45.6750588" lon="11.555635"><ele>90.0</ele><time>2026-04-02T15:27:11.58Z</time></trkpt><trkpt lat="45.6756036" lon="11.5561223"><ele>86.0</ele><time>2026-04-02T15:28:21.138Z</time></trkpt><trkpt lat="45.6716879" lon="11.5615723"><ele>83.0</ele><time>2026-04-02T15:29:35.154Z</time></trkpt><trkpt lat="45.6712462" lon="11.5623228"><ele>81.0</ele><time>2026-04-02T15:29:46.4Z</time></trkpt><trkpt lat="45.666151" lon="11.5623495"><ele>81.0</ele><time>2026-04-02T15:34:11.298Z</time></trkpt><trkpt lat="45.6660288" lon="11.5621734"><ele>80.0</ele><time>2026-04-02T15:35:09.893Z</time></trkpt></trkseg></trk></gpx>